createdAt,value
2017-06-22T00:00:27.322Z,21.07
2017-06-22T00:02:59.910Z,21.01
2017-06-22T00:05:32.746Z,20.39
2017-06-22T00:08:05.429Z,20.52
2017-06-22T00:10:39.648Z,20.24
2017-06-22T00:13:10.109Z,20.25
2017-06-22T00:15:42.913Z,20.51
2017-06-22T00:18:15.625Z,21.47
2017-06-22T00:20:48.486Z,21.80
2017-06-22T00:23:18.718Z,22.30
2017-06-22T00:25:51.605Z,22.93
2017-06-22T00:28:24.354Z,23.48
2017-06-22T00:30:57.238Z,21.85
2017-06-22T00:33:30.776Z,20.45
2017-06-22T00:36:03.890Z,21.57
2017-06-22T00:38:36.284Z,22.89
2017-06-22T00:41:09.406Z,23.16
2017-06-22T00:43:43.146Z,21.80
2017-06-22T00:46:13.242Z,21.71
2017-06-22T00:48:46.375Z,21.67
2017-06-22T00:51:19.006Z,22.32
2017-06-22T00:53:51.947Z,23.19
2017-06-22T00:56:24.494Z,21.63
2017-06-22T00:58:57.966Z,20.58
2017-06-22T01:01:30.883Z,21.48
2017-06-22T01:04:03.833Z,21.60
2017-06-22T01:06:36.678Z,20.89
2017-06-22T01:09:09.333Z,21.56
2017-06-22T01:11:42.068Z,21.46
2017-06-22T01:14:14.855Z,22.58
2017-06-22T01:16:47.575Z,20.78
2017-06-22T01:19:20.231Z,20.47
2017-06-22T01:21:52.834Z,22.31
2017-06-22T01:24:25.642Z,22.15
2017-06-22T01:26:58.496Z,22.58
2017-06-22T01:29:31.234Z,21.46
2017-06-22T01:32:04.368Z,22.04
2017-06-22T01:34:36.930Z,21.34
2017-06-22T01:37:09.551Z,20.90
2017-06-22T01:39:43.486Z,20.42
2017-06-22T01:42:16.217Z,20.10
2017-06-22T01:44:48.948Z,20.59
2017-06-22T01:47:21.705Z,20.30
2017-06-22T01:49:54.598Z,22.01
2017-06-22T01:52:27.090Z,22.04
2017-06-22T01:54:59.838Z,22.47
2017-06-22T01:57:32.628Z,21.20
2017-06-22T02:00:05.371Z,20.51
2017-06-22T02:02:38.138Z,19.93
2017-06-22T02:05:10.863Z,20.51
2017-06-22T02:07:43.563Z,21.15
2017-06-22T02:10:16.238Z,22.10
2017-06-22T02:12:49.841Z,20.77
2017-06-22T02:15:23.736Z,19.48
2017-06-22T02:17:56.838Z,19.56
2017-06-22T02:20:29.448Z,20.69
2017-06-22T02:23:03.042Z,21.80
2017-06-22T02:25:35.968Z,21.78
2017-06-22T02:28:09.932Z,21.99
2017-06-22T02:30:42.930Z,22.13
2017-06-22T02:33:16.540Z,21.69
2017-06-22T02:35:49.359Z,22.24
2017-06-22T02:38:22.918Z,20.95
2017-06-22T02:40:55.716Z,21.40
2017-06-22T02:43:28.456Z,20.07
2017-06-22T02:46:01.198Z,19.62
2017-06-22T02:48:33.796Z,19.99
2017-06-22T02:51:06.701Z,20.22
2017-06-22T02:53:36.838Z,20.69
2017-06-22T02:56:09.447Z,21.08
2017-06-22T02:58:42.264Z,20.39
2017-06-22T03:01:16.053Z,20.21
2017-06-22T03:03:46.205Z,21.19
2017-06-22T03:06:19.601Z,20.53
2017-06-22T03:08:52.394Z,20.39
2017-06-22T03:11:25.203Z,20.78
2017-06-22T03:13:57.913Z,19.78
2017-06-22T03:16:30.509Z,19.29
2017-06-22T03:19:04.212Z,19.84
2017-06-22T03:21:36.954Z,20.56
2017-06-22T03:24:09.834Z,20.59
2017-06-22T03:26:44.448Z,21.38
2017-06-22T03:29:17.216Z,21.28
2017-06-22T03:31:49.794Z,21.85
2017-06-22T03:34:22.631Z,20.79
2017-06-22T03:36:55.207Z,20.87
2017-06-22T03:39:28.416Z,20.40
2017-06-22T03:42:00.823Z,19.82
2017-06-22T03:44:33.315Z,19.74
2017-06-22T03:47:06.289Z,20.36
2017-06-22T03:49:38.968Z,21.43
2017-06-22T03:52:12.678Z,21.78
2017-06-22T03:54:45.278Z,21.62
2017-06-22T03:57:18.781Z,21.88
2017-06-22T03:59:51.362Z,20.23
2017-06-22T04:02:23.982Z,19.81
2017-06-22T04:04:56.791Z,20.47
2017-06-22T04:07:29.723Z,20.44
2017-06-22T04:10:02.554Z,21.56
2017-06-22T04:12:35.290Z,21.85
2017-06-22T04:15:08.155Z,22.10
2017-06-22T04:17:41.662Z,22.18
2017-06-22T04:20:14.629Z,21.81
2017-06-22T04:22:48.221Z,21.98
2017-06-22T04:25:21.030Z,21.99
2017-06-22T04:27:53.773Z,21.88
2017-06-22T04:30:26.579Z,20.86
2017-06-22T04:32:59.156Z,21.01
2017-06-22T04:35:32.893Z,21.79
2017-06-22T04:38:06.766Z,21.64
2017-06-22T04:40:39.650Z,21.18
2017-06-22T04:43:12.466Z,22.01
2017-06-22T04:45:45.129Z,22.09
2017-06-22T04:48:17.850Z,21.92
2017-06-22T04:50:50.634Z,21.82
2017-06-22T04:53:23.272Z,22.11
2017-06-22T04:55:55.942Z,22.03
2017-06-22T04:58:28.533Z,21.48
2017-06-22T05:01:01.023Z,21.92
2017-06-22T05:03:33.943Z,22.13
2017-06-22T05:06:06.605Z,22.32
2017-06-22T05:08:39.363Z,22.44
2017-06-22T05:11:12.220Z,22.50
2017-06-22T05:13:45.714Z,22.58
2017-06-22T05:16:18.707Z,22.50
2017-06-22T05:18:51.507Z,22.63
2017-06-22T05:21:24.301Z,22.31
2017-06-22T05:23:57.158Z,22.38
2017-06-22T05:26:29.599Z,22.54
2017-06-22T05:29:03.226Z,22.52
2017-06-22T05:31:35.932Z,22.67
2017-06-22T05:34:08.624Z,22.55
2017-06-22T05:36:41.333Z,22.81
2017-06-22T05:39:14.686Z,22.76
2017-06-22T05:41:48.490Z,23.00
2017-06-22T05:44:21.160Z,22.95
2017-06-22T05:46:53.732Z,22.78
2017-06-22T05:49:26.211Z,22.73
2017-06-22T05:51:58.855Z,22.76
2017-06-22T05:54:31.655Z,22.88
2017-06-22T05:57:04.408Z,22.88
2017-06-22T05:59:38.060Z,22.91
2017-06-22T06:02:10.619Z,23.00
2017-06-22T06:07:15.932Z,23.21
2017-06-22T06:09:48.616Z,23.42
2017-06-22T06:12:21.932Z,23.42
2017-06-22T06:14:55.429Z,23.52
2017-06-22T06:17:34.274Z,23.60
2017-06-22T06:20:08.746Z,23.73
2017-06-22T06:22:43.295Z,23.81
2017-06-22T06:25:25.671Z,24.01
2017-06-22T06:28:03.160Z,24.12
2017-06-22T06:30:37.137Z,24.14
2017-06-22T06:33:09.862Z,24.30
2017-06-22T06:35:42.996Z,24.54
2017-06-22T06:38:17.755Z,24.67
2017-06-22T06:40:51.897Z,24.73
2017-06-22T06:43:25.518Z,24.87
2017-06-22T06:45:57.861Z,25.05
2017-06-22T06:48:30.719Z,25.20
2017-06-22T06:51:03.470Z,25.24
2017-06-22T06:53:36.049Z,25.25
2017-06-22T06:56:08.668Z,25.32
2017-06-22T06:58:41.325Z,25.46
2017-06-22T07:01:16.294Z,25.46
2017-06-22T07:03:50.101Z,25.64
2017-06-22T07:06:24.766Z,25.89
2017-06-22T07:09:03.769Z,26.16
2017-06-22T07:11:36.378Z,26.10
2017-06-22T07:14:08.962Z,26.12
2017-06-22T07:16:47.617Z,26.52
2017-06-22T07:19:21.847Z,26.52
2017-06-22T07:21:55.206Z,26.50
2017-06-22T07:24:29.239Z,26.62
2017-06-22T07:27:02.473Z,26.71
2017-06-22T07:29:35.743Z,26.62
2017-06-22T07:32:09.083Z,26.72
2017-06-22T07:34:46.359Z,26.78
2017-06-22T07:37:19.914Z,27.31
2017-06-22T07:39:57.959Z,27.37
2017-06-22T07:42:30.577Z,27.67
2017-06-22T07:45:03.483Z,27.66
2017-06-22T07:47:36.882Z,27.78
2017-06-22T07:50:09.936Z,27.66
2017-06-22T07:52:47.334Z,28.11
2017-06-22T07:55:19.907Z,28.21
2017-06-22T07:57:49.900Z,28.48
2017-06-22T08:00:22.105Z,28.64
2017-06-22T08:02:55.761Z,28.55
2017-06-22T08:05:29.529Z,28.49
2017-06-22T08:08:03.029Z,28.79
2017-06-22T08:10:36.887Z,28.66
2017-06-22T08:13:11.322Z,28.80
2017-06-22T08:15:45.385Z,29.25
2017-06-22T08:18:18.007Z,29.24
2017-06-22T08:20:50.873Z,29.54
2017-06-22T08:23:24.645Z,29.26
2017-06-22T08:25:58.317Z,29.63
2017-06-22T08:28:31.462Z,30.39
2017-06-22T08:31:04.932Z,31.05
2017-06-22T08:33:38.031Z,31.03
2017-06-22T08:36:10.875Z,30.89
2017-06-22T08:38:43.814Z,31.19
2017-06-22T08:41:16.302Z,31.46
2017-06-22T08:43:46.454Z,31.16
2017-06-22T08:46:19.651Z,31.30
2017-06-22T08:48:52.360Z,32.05
2017-06-22T08:51:25.632Z,32.54
2017-06-22T08:53:57.909Z,32.62
2017-06-22T08:56:31.067Z,32.46
2017-06-22T08:59:05.151Z,31.85
2017-06-22T09:01:36.054Z,31.63
2017-06-22T09:04:09.370Z,31.63
2017-06-22T09:06:43.151Z,32.24
2017-06-22T09:09:16.598Z,32.13
2017-06-22T09:11:50.479Z,31.90
2017-06-22T09:14:25.936Z,32.09
2017-06-22T09:16:59.294Z,32.73
2017-06-22T09:19:29.382Z,32.62
2017-06-22T09:22:03.614Z,32.53
2017-06-22T09:24:38.278Z,32.56
2017-06-22T09:27:17.252Z,32.75
2017-06-22T09:29:50.866Z,32.81
2017-06-22T09:32:26.441Z,32.73
2017-06-22T09:34:59.872Z,32.72
2017-06-22T09:37:33.182Z,32.93
2017-06-22T09:40:13.967Z,32.53
2017-06-22T09:42:47.059Z,32.58
2017-06-22T09:45:19.861Z,32.68
2017-06-22T09:47:52.655Z,32.75
2017-06-22T09:50:26.936Z,32.82
2017-06-22T09:53:01.216Z,32.72
2017-06-22T09:55:35.148Z,32.60
2017-06-22T09:58:15.293Z,32.65
2017-06-22T10:00:47.858Z,32.61
2017-06-22T10:03:21.402Z,32.73
2017-06-22T10:05:55.153Z,32.47
2017-06-22T10:11:26.701Z,32.61
2017-06-22T10:14:09.931Z,33.15
2017-06-22T10:16:49.446Z,33.72
2017-06-22T10:19:22.406Z,33.62
2017-06-22T10:22:02.867Z,33.46
2017-06-22T10:24:43.814Z,33.95
2017-06-22T10:27:21.037Z,34.05
2017-06-22T10:29:53.457Z,33.89
2017-06-22T10:32:34.565Z,34.07
2017-06-22T10:35:12.178Z,34.07
2017-06-22T10:37:56.295Z,33.69
2017-06-22T10:40:27.179Z,33.90
2017-06-22T10:43:01.173Z,34.29
2017-06-22T10:45:33.773Z,34.39
2017-06-22T10:48:06.759Z,34.70
2017-06-22T10:50:47.179Z,34.61
2017-06-22T10:59:05.131Z,34.27
2017-06-22T11:04:36.401Z,34.97
2017-06-22T11:07:15.683Z,34.91
2017-06-22T11:09:48.391Z,35.06
2017-06-22T11:12:21.292Z,35.29
2017-06-22T11:14:54.195Z,34.99
2017-06-22T11:17:33.742Z,35.12
2017-06-22T11:20:03.858Z,34.91
2017-06-22T11:22:33.921Z,34.85
2017-06-22T11:25:06.357Z,34.65
2017-06-22T11:27:39.212Z,34.98
2017-06-22T11:30:15.068Z,34.87
2017-06-22T11:32:48.031Z,35.51
2017-06-22T11:35:24.457Z,35.29
2017-06-22T11:37:57.979Z,35.84
2017-06-22T11:40:30.550Z,35.64
2017-06-22T11:43:05.725Z,35.87
2017-06-22T11:45:39.505Z,35.77
2017-06-22T11:57:04.888Z,36.06
2017-06-22T12:05:44.778Z,36.26
2017-06-22T12:08:18.624Z,36.59
2017-06-22T12:13:45.729Z,35.98
2017-06-22T12:16:20.078Z,36.22
2017-06-22T12:18:55.134Z,36.19
2017-06-22T12:21:45.789Z,35.76
2017-06-22T12:24:23.765Z,35.68
2017-06-22T12:33:44.460Z,36.09
2017-06-22T12:39:11.279Z,36.33
2017-06-22T12:47:28.251Z,36.23
2017-06-22T12:55:36.727Z,35.76
2017-06-22T12:58:15.729Z,36.63
2017-06-22T13:00:46.877Z,36.90
2017-06-22T13:03:19.160Z,36.69
2017-06-22T13:05:54.407Z,37.03
2017-06-22T13:08:27.679Z,36.63
2017-06-22T13:11:00.059Z,36.80
2017-06-22T13:13:33.235Z,36.66
2017-06-22T13:16:05.812Z,35.94
2017-06-22T13:18:38.549Z,36.73
2017-06-22T13:21:11.171Z,36.93
2017-06-22T13:23:44.014Z,36.61
2017-06-22T13:26:16.287Z,37.48
2017-06-22T13:28:47.415Z,37.17
2017-06-22T13:31:21.083Z,36.98
2017-06-22T13:33:53.702Z,36.09
2017-06-22T13:36:29.794Z,36.44
2017-06-22T13:39:02.486Z,36.91
2017-06-22T13:41:35.428Z,37.09
2017-06-22T13:44:05.546Z,37.28
2017-06-22T13:46:38.490Z,36.82
2017-06-22T13:49:11.151Z,36.31
2017-06-22T13:51:44.115Z,36.39
2017-06-22T13:54:17.598Z,36.76
2017-06-22T13:56:50.930Z,36.93
2017-06-22T13:59:35.288Z,36.78
2017-06-22T14:02:09.605Z,36.63
2017-06-22T14:04:43.685Z,37.35
2017-06-22T14:07:16.545Z,37.91
2017-06-22T14:09:49.335Z,36.71
2017-06-22T14:12:22.253Z,37.00
2017-06-22T14:14:55.422Z,36.55
2017-06-22T14:17:25.725Z,36.99
2017-06-22T14:19:58.688Z,36.77
2017-06-22T14:22:31.465Z,36.61
2017-06-22T14:25:04.148Z,36.51
2017-06-22T14:27:44.059Z,36.86
2017-06-22T14:30:18.715Z,36.74
2017-06-22T14:32:53.794Z,36.38
2017-06-22T14:35:24.143Z,37.14
2017-06-22T14:37:57.090Z,36.11
2017-06-22T14:40:29.520Z,36.34
2017-06-22T14:43:02.719Z,37.02
2017-06-22T14:45:35.090Z,36.62
2017-06-22T14:48:07.962Z,36.23
2017-06-22T14:50:47.445Z,36.80
2017-06-22T14:53:19.787Z,37.56
2017-06-22T14:55:52.682Z,36.68
2017-06-22T14:58:25.724Z,36.41
2017-06-22T15:00:58.692Z,37.14
2017-06-22T15:03:31.598Z,36.88
2017-06-22T15:06:04.658Z,37.13
2017-06-22T15:08:37.061Z,36.88
2017-06-22T15:11:10.040Z,36.69
2017-06-22T15:13:42.855Z,36.71
2017-06-22T15:16:13.441Z,36.20
2017-06-22T15:18:46.307Z,36.18
2017-06-22T15:21:16.478Z,36.83
2017-06-22T15:23:48.951Z,35.93
2017-06-22T15:26:21.861Z,36.46
2017-06-22T15:28:54.341Z,36.16
2017-06-22T15:31:26.995Z,36.04
2017-06-22T15:33:59.964Z,35.86
2017-06-22T15:36:32.650Z,35.84
2017-06-22T15:39:05.514Z,36.08
2017-06-22T15:41:35.507Z,36.37
2017-06-22T15:44:10.797Z,35.71
2017-06-22T15:46:43.450Z,35.83
2017-06-22T15:49:16.862Z,35.85
2017-06-22T15:51:49.193Z,35.49
2017-06-22T15:54:21.855Z,35.44
2017-06-22T15:56:54.493Z,35.89
2017-06-22T15:59:32.196Z,36.03
2017-06-22T16:02:04.480Z,36.39
2017-06-22T16:04:37.354Z,36.30
2017-06-22T16:07:10.036Z,36.61
2017-06-22T16:09:42.808Z,35.78
2017-06-22T16:12:15.629Z,36.43
2017-06-22T16:14:48.304Z,36.50
2017-06-22T16:17:21.857Z,36.23
2017-06-22T16:19:54.889Z,35.78
2017-06-22T16:22:27.828Z,34.99
2017-06-22T16:25:00.422Z,35.15
2017-06-22T16:27:34.203Z,35.31
2017-06-22T16:32:59.929Z,34.62
2017-06-22T16:35:35.882Z,34.39
2017-06-22T16:38:10.116Z,34.23
2017-06-22T16:40:45.150Z,33.74
2017-06-22T16:43:18.131Z,32.87
2017-06-22T16:45:52.733Z,31.58
2017-06-22T16:48:25.949Z,29.62
2017-06-22T16:50:59.894Z,27.95
2017-06-22T16:53:32.604Z,28.58
2017-06-22T16:56:06.535Z,29.44
2017-06-22T16:58:40.585Z,29.19
2017-06-22T17:01:14.532Z,29.54
2017-06-22T17:03:47.910Z,28.55
2017-06-22T17:06:21.694Z,28.51
2017-06-22T17:08:55.508Z,28.95
2017-06-22T17:11:29.235Z,29.53
2017-06-22T17:14:03.002Z,28.00
2017-06-22T17:16:36.727Z,29.23
2017-06-22T17:19:10.574Z,30.12
2017-06-22T17:21:43.369Z,30.18
2017-06-22T17:24:17.316Z,29.33
2017-06-22T17:26:51.237Z,27.91
2017-06-22T17:29:25.001Z,29.79
2017-06-22T17:32:01.021Z,29.99
2017-06-22T17:34:43.553Z,29.01
2017-06-22T17:37:18.369Z,29.51
2017-06-22T17:39:51.939Z,29.79
2017-06-22T17:42:31.542Z,29.36
2017-06-22T17:56:36.279Z,27.66
2017-06-22T18:02:19.313Z,27.60
2017-06-22T18:05:14.687Z,27.67
2017-06-22T18:07:50.307Z,26.91
2017-06-22T18:10:25.869Z,26.77
2017-06-22T18:15:54.400Z,27.35
2017-06-22T18:18:29.878Z,26.62
2017-06-22T18:21:02.930Z,27.14
2017-06-22T18:23:36.324Z,28.13
2017-06-22T18:26:08.606Z,28.01
2017-06-22T18:28:41.974Z,26.65
2017-06-22T18:31:16.131Z,26.17
2017-06-22T18:33:50.625Z,26.93
2017-06-22T18:36:24.772Z,27.05
2017-06-22T18:38:58.269Z,27.38
2017-06-22T18:41:31.431Z,26.98
2017-06-22T18:44:05.356Z,27.45
2017-06-22T18:46:39.707Z,26.53
2017-06-22T18:49:12.545Z,26.17
2017-06-22T18:51:45.406Z,27.01
2017-06-22T18:54:18.270Z,27.56
2017-06-22T18:56:51.285Z,26.95
2017-06-22T18:59:22.783Z,27.48
2017-06-22T19:01:57.026Z,26.31
2017-06-22T19:04:29.809Z,26.21
2017-06-22T19:07:03.584Z,26.68
2017-06-22T19:09:36.668Z,26.57
2017-06-22T19:12:10.786Z,26.46
2017-06-22T19:14:45.109Z,26.03
2017-06-22T19:17:18.855Z,26.43
2017-06-22T19:19:52.253Z,26.32
2017-06-22T19:22:28.298Z,25.63
2017-06-22T19:25:01.328Z,26.04
2017-06-22T19:27:35.096Z,26.20
2017-06-22T19:30:08.871Z,25.95
2017-06-22T19:32:42.458Z,25.42
2017-06-22T19:35:15.896Z,25.31
2017-06-22T19:37:49.351Z,25.57
2017-06-22T19:40:22.805Z,25.65
2017-06-22T19:42:55.116Z,26.21
2017-06-22T19:45:28.985Z,25.42
2017-06-22T19:48:02.691Z,25.62
2017-06-22T19:50:36.326Z,25.14
2017-06-22T19:53:06.837Z,25.28
2017-06-22T19:55:40.824Z,24.92
2017-06-22T19:58:13.542Z,25.67
2017-06-22T20:00:46.458Z,24.62
2017-06-22T20:03:20.212Z,25.50
2017-06-22T20:05:52.928Z,25.43
2017-06-22T20:08:25.833Z,25.43
2017-06-22T20:10:59.589Z,24.65
2017-06-22T20:13:32.526Z,25.22
2017-06-22T20:16:05.731Z,23.97
2017-06-22T20:18:38.538Z,25.00
2017-06-22T20:21:11.234Z,24.84
2017-06-22T20:23:44.191Z,25.30
2017-06-22T20:26:16.597Z,23.91
2017-06-22T20:28:49.700Z,24.72
2017-06-22T20:31:22.048Z,24.55
2017-06-22T20:33:55.167Z,24.67
2017-06-22T20:36:28.955Z,24.64
2017-06-22T20:39:02.683Z,24.72
2017-06-22T20:41:36.434Z,24.89
2017-06-22T20:44:09.460Z,24.34
2017-06-22T20:46:42.623Z,24.26
2017-06-22T20:49:15.775Z,24.05
2017-06-22T20:51:49.495Z,24.43
2017-06-22T20:54:22.182Z,24.84
2017-06-22T20:56:54.831Z,23.94
2017-06-22T20:59:27.381Z,24.77
2017-06-22T21:02:00.623Z,23.51
2017-06-22T21:04:34.107Z,24.09
2017-06-22T21:07:07.414Z,24.22
2017-06-22T21:09:40.562Z,24.33
2017-06-22T21:12:13.551Z,23.33
2017-06-22T21:14:46.307Z,23.76
2017-06-22T21:17:19.038Z,25.33
2017-06-22T21:19:52.486Z,24.15
2017-06-22T21:22:25.387Z,24.23
2017-06-22T21:24:58.072Z,23.99
2017-06-22T21:27:31.177Z,24.78
2017-06-22T21:30:04.042Z,24.34
2017-06-22T21:32:36.539Z,24.58
2017-06-22T21:35:09.445Z,24.44
2017-06-22T21:37:42.688Z,24.53
2017-06-22T21:40:13.201Z,24.06
2017-06-22T21:42:45.910Z,24.05
2017-06-22T21:45:19.160Z,23.72
2017-06-22T21:47:52.130Z,23.42
2017-06-22T21:50:27.478Z,24.09
2017-06-22T21:53:03.169Z,23.29
2017-06-22T21:55:38.233Z,23.22
2017-06-22T21:58:13.617Z,23.91
2017-06-22T22:00:50.235Z,23.80
2017-06-22T22:03:25.278Z,24.06
2017-06-22T22:22:04.030Z,23.29
2017-06-22T22:24:36.543Z,24.06
2017-06-22T22:27:09.248Z,23.62
2017-06-22T22:29:42.139Z,24.21
2017-06-22T22:32:14.907Z,23.61
2017-06-22T22:34:48.152Z,23.28
2017-06-22T22:37:21.327Z,23.83
2017-06-22T22:39:53.939Z,23.75
2017-06-22T22:42:26.710Z,24.02
2017-06-22T22:44:56.765Z,24.40
2017-06-22T22:47:30.003Z,24.26
2017-06-22T22:50:02.792Z,23.33
2017-06-22T22:52:35.573Z,23.31
2017-06-22T22:55:21.868Z,23.70
2017-06-22T22:57:54.169Z,23.12
2017-06-22T23:00:24.235Z,22.88
2017-06-22T23:02:56.762Z,23.80
2017-06-22T23:05:29.345Z,22.64
2017-06-22T23:08:02.324Z,22.77
2017-06-22T23:10:35.119Z,22.36
2017-06-22T23:13:07.956Z,23.18
2017-06-22T23:15:40.162Z,22.73
2017-06-22T23:18:12.994Z,22.80
2017-06-22T23:20:45.573Z,23.62
2017-06-22T23:23:18.146Z,23.61
2017-06-22T23:25:52.228Z,22.69
2017-06-22T23:28:24.775Z,22.79
2017-06-22T23:30:58.302Z,23.68
2017-06-22T23:33:32.228Z,23.32
2017-06-22T23:38:42.860Z,23.18
2017-06-22T23:41:15.827Z,22.78
2017-06-22T23:43:48.410Z,22.66
2017-06-22T23:46:21.078Z,22.86
2017-06-22T23:48:53.617Z,23.11
2017-06-22T23:51:26.403Z,22.59
2017-06-22T23:53:59.106Z,22.08
2017-06-22T23:56:31.514Z,22.75
2017-06-22T23:59:04.233Z,23.45
